Lexington, Missouri
Current Conditions -  °F | °C
As of 9:15 PM on Saturday 20 Dec 2014 (Local Time) from KGPH Reporting Station
Clear Clear  
Wind Chill: 33°   Ceiling: Unl
Heat Index: 37°   Visibility: 7mi
Dew Point: 34°   Wind: 6mph
Humidity: 87%   Direction: 140°SE
Pressure: 30.15"   Gusts: NA
Location:  39.18°N, 93.88°W
Report Text: KGPH 210315Z AUTO 14005KT 7SM CLR 03/01 A3015 RMK AO2
Loading
Personal Weather Stations






























Interactive Weather Map New forecast layout! Learn more

10-Day Weather Forecast

Advertisements
Track Severe Weather on mobile